Time;durP1;ratioP1;P1;durP2;ratioP2;P2;SDS_P1;SDS_P2;PMS_P1;PMS_P2;Temp;Humidity;BMP_temperature;BMP_pressure;BME280_temperature;BME280_humidity;BME280_pressure;Samples;Min_cycle;Max_cycle;Signal;HPM_P1;HPM_P2
2024/02/10 00:02:26;;;;;;;;;;;;;;;0.27;100.00;99559.30;108372;1251;61197;-70
2024/02/10 00:04:56;;;;;;;;;;;;;;;0.27;100.00;99559.83;108428;1255;61096;-70
2024/02/10 00:07:23;;;;;;;;;;;;;;;0.27;100.00;99558.01;108366;1254;73458;-70
2024/02/10 00:09:50;;;;;;;;;;;;;;;0.28;100.00;99552.30;108508;1251;72489;-69
2024/02/10 00:12:18;;;;;;;;;;;;;;;0.28;100.00;99544.38;108368;1251;72965;-69
2024/02/10 00:14:45;;;;;;;;;;;;;;;0.28;100.00;99539.58;108404;1256;61114;-69
2024/02/10 00:17:11;;;;;;;;;;;;;;;0.28;100.00;99539.48;108416;1251;61080;-70
2024/02/10 00:19:38;;;;;;;;;;;;;;;0.30;100.00;99528.61;108473;1251;74236;-71
2024/02/10 00:22:07;;;;;;;;;;;;;;;0.31;100.00;99525.45;108433;1251;71460;-70
2024/02/10 00:24:34;;;;;;;;;;;;;;;0.33;100.00;99523.08;108420;1255;72722;-70
2024/02/10 00:27:01;;;;;;;;;;;;;;;0.35;100.00;99523.46;108428;1251;61108;-70
2024/02/10 00:29:29;;;;;;;;;;;;;;;0.35;100.00;99523.83;108522;1251;61128;-70
2024/02/10 00:31:58;;;;;;;;;;;;;;;0.37;100.00;99527.29;108454;1257;73400;-70
2024/02/10 00:34:28;;;;;;;;;;;;;;;0.37;100.00;99525.80;108451;1251;72551;-70
2024/02/10 00:36:56;;;;;;;;;;;;;;;0.36;100.00;99527.10;108416;1251;72535;-70
2024/02/10 00:39:23;;;;;;;;;;;;;;;0.38;100.00;99533.50;108405;1251;61325;-70
2024/02/10 00:41:52;;;;;;;;;;;;;;;0.41;100.00;99533.85;108547;1251;61189;-69
2024/02/10 00:44:21;;;;;;;;;;;;;;;0.43;100.00;99530.77;108495;1251;74901;-70
2024/02/10 00:46:48;;;;;;;;;;;;;;;0.43;100.00;99536.82;108457;1251;71144;-70
2024/02/10 00:49:15;;;;;;;;;;;;;;;0.44;100.00;99542.88;108338;1251;72376;-70
2024/02/10 00:51:42;;;;;;;;;;;;;;;0.45;100.00;99543.34;108365;1251;61346;-69
2024/02/10 00:54:09;;;;;;;;;;;;;;;0.46;100.00;99540.27;108461;1251;61141;-70
2024/02/10 00:56:37;;;;;;;;;;;;;;;0.46;100.00;99543.94;108335;1251;74980;-71
2024/02/10 00:59:04;;;;;;;;;;;;;;;0.46;100.00;99538.16;108369;1251;71331;-70
2024/02/10 01:01:31;;;;;;;;;;;;;;;0.47;100.00;99532.86;108432;1251;71287;-71
2024/02/10 01:04:01;;;;;;;;;;;;;;;0.47;100.00;99537.43;108394;1251;61068;-73
2024/02/10 01:06:28;;;;;;;;;;;;;;;0.47;100.00;99535.89;108358;1251;61057;-71
2024/02/10 01:08:54;;;;;;;;;;;;;;;0.49;100.00;99539.59;108388;1253;73133;-69
2024/02/10 01:11:27;;;;;;;;;;;;;;;0.50;100.00;99538.86;108344;1252;72644;-69
2024/02/10 01:13:54;;;;;;;;;;;;;;;0.49;100.00;99534.94;108411;1251;72388;-70
2024/02/10 01:16:22;;;;;;;;;;;;;;;0.48;100.00;99528.13;108462;1251;60965;-70
2024/02/10 01:18:48;;;;;;;;;;;;;;;0.47;100.00;99523.16;108416;1251;61119;-70
2024/02/10 01:21:15;;;;;;;;;;;;;;;0.48;100.00;99525.91;108377;1251;73717;-70
2024/02/10 01:23:42;;;;;;;;;;;;;;;0.49;100.00;99521.56;108392;1251;71789;-70
2024/02/10 01:26:12;;;;;;;;;;;;;;;0.49;100.00;99515.06;108424;1252;71241;-70
2024/02/10 01:28:44;;;;;;;;;;;;;;;0.49;100.00;99509.71;108415;1251;61818;-70
2024/02/10 01:31:12;;;;;;;;;;;;;;;0.51;100.00;99509.26;108386;1251;61060;-69
2024/02/10 01:33:41;;;;;;;;;;;;;;;0.53;100.00;99511.17;108361;1255;74572;-70
2024/02/10 01:36:11;;;;;;;;;;;;;;;0.53;100.00;99511.83;108372;1251;72312;-69
2024/02/10 01:38:44;;;;;;;;;;;;;;;0.53;100.00;99509.52;108314;1256;72618;-69
2024/02/10 01:41:12;;;;;;;;;;;;;;;0.51;100.00;99506.31;108348;1251;61267;-71
2024/02/10 01:43:43;;;;;;;;;;;;;;;0.50;100.00;99501.56;108363;1251;61082;-70
2024/02/10 01:46:10;;;;;;;;;;;;;;;0.51;100.00;99503.84;108443;1251;74498;-68
2024/02/10 01:48:37;;;;;;;;;;;;;;;0.51;100.00;99500.48;108331;1251;72520;-70
2024/02/10 01:51:04;;;;;;;;;;;;;;;0.54;100.00;99503.60;108475;1251;71239;-71
2024/02/10 01:53:32;;;;;;;;;;;;;;;0.57;100.00;99506.98;108484;1255;61151;-69
2024/02/10 01:55:59;;;;;;;;;;;;;;;0.59;100.00;99511.13;108340;1255;61231;-70
2024/02/10 01:58:26;;;;;;;;;;;;;;;0.60;100.00;99510.63;108316;1256;73416;-70
2024/02/10 02:00:53;;;;;;;;;;;;;;;0.61;100.00;99508.13;108482;1252;72922;-70
2024/02/10 02:03:21;;;;;;;;;;;;;;;0.61;100.00;99507.23;108331;1254;71840;-69
2024/02/10 02:05:49;;;;;;;;;;;;;;;0.63;100.00;99509.20;108584;1251;61224;-68
2024/02/10 02:08:17;;;;;;;;;;;;;;;0.63;100.00;99512.14;108362;1251;61096;-69
2024/02/10 02:10:45;;;;;;;;;;;;;;;0.63;100.00;99512.83;108352;1251;73103;-69
2024/02/10 02:13:11;;;;;;;;;;;;;;;0.63;100.00;99518.48;108352;1251;72508;-69
2024/02/10 02:15:39;;;;;;;;;;;;;;;0.63;100.00;99523.38;108346;1251;71516;-69
2024/02/10 02:18:09;;;;;;;;;;;;;;;0.62;100.00;99525.52;108375;1251;61678;-69
2024/02/10 02:20:36;;;;;;;;;;;;;;;0.64;100.00;99524.73;108883;1254;61169;-70
2024/02/10 02:23:04;;;;;;;;;;;;;;;0.65;100.00;99521.21;108387;1251;73924;-69
2024/02/10 02:25:34;;;;;;;;;;;;;;;0.65;100.00;99525.65;108345;1251;72538;-69
2024/02/10 02:28:01;;;;;;;;;;;;;;;0.67;100.00;99530.86;108387;1251;72540;-71
2024/02/10 02:30:28;;;;;;;;;;;;;;;0.70;100.00;99531.66;108322;1251;61212;-69
2024/02/10 02:32:55;;;;;;;;;;;;;;;0.72;100.00;99523.28;108364;1251;60025;-70
2024/02/10 02:35:22;;;;;;;;;;;;;;;0.74;100.00;99520.85;108385;1251;75101;-70
2024/02/10 02:37:49;;;;;;;;;;;;;;;0.75;100.00;99521.19;108455;1251;72861;-70
2024/02/10 02:40:16;;;;;;;;;;;;;;;0.76;100.00;99522.61;108313;1256;72848;-70
2024/02/10 02:42:43;;;;;;;;;;;;;;;0.75;100.00;99522.20;108376;1251;61224;-70
2024/02/10 02:45:10;;;;;;;;;;;;;;;0.73;100.00;99515.84;108367;1251;61113;-70
2024/02/10 02:47:37;;;;;;;;;;;;;;;0.70;100.00;99513.98;108391;1251;74610;-70
2024/02/10 02:50:08;;;;;;;;;;;;;;;0.69;100.00;99516.28;108430;1251;71737;-71
2024/02/10 02:52:37;;;;;;;;;;;;;;;0.69;100.00;99515.23;108375;1251;72761;-69
2024/02/10 02:55:05;;;;;;;;;;;;;;;0.70;100.00;99517.04;108401;1251;60222;-69
2024/02/10 02:57:34;;;;;;;;;;;;;;;0.71;100.00;99517.30;108377;1251;61086;-69
2024/02/10 03:00:01;;;;;;;;;;;;;;;0.69;100.00;99515.92;108380;1251;73530;-68
2024/02/10 03:02:30;;;;;;;;;;;;;;;0.69;100.00;99516.24;108390;1251;72530;-69
2024/02/10 03:04:57;;;;;;;;;;;;;;;0.68;100.00;99515.02;108390;1254;72620;-68
2024/02/10 03:07:27;;;;;;;;;;;;;;;0.69;100.00;99522.34;108385;1251;61237;-69
2024/02/10 03:09:54;;;;;;;;;;;;;;;0.70;100.00;99524.07;108341;1251;61992;-70
2024/02/10 03:12:22;;;;;;;;;;;;;;;0.70;100.00;99521.81;108351;1251;75231;-70
2024/02/10 03:14:49;;;;;;;;;;;;;;;0.70;100.00;99527.44;108409;1251;72770;-69
2024/02/10 03:17:16;;;;;;;;;;;;;;;0.70;100.00;99531.32;108423;1256;73239;-70
2024/02/10 03:19:46;;;;;;;;;;;;;;;0.70;100.00;99537.05;108465;1251;61075;-70
2024/02/10 03:22:13;;;;;;;;;;;;;;;0.73;100.00;99538.17;108395;1251;60077;-69
2024/02/10 03:24:47;;;;;;;;;;;;;;;0.72;100.00;99538.21;108420;1251;74368;-70
2024/02/10 03:27:15;;;;;;;;;;;;;;;0.74;100.00;99540.09;108448;1251;71438;-69
2024/02/10 03:29:42;;;;;;;;;;;;;;;0.74;100.00;99539.37;108548;1251;70469;-70
2024/02/10 03:32:09;;;;;;;;;;;;;;;0.75;100.00;99534.14;108396;1251;61486;-69
2024/02/10 03:34:36;;;;;;;;;;;;;;;0.75;100.00;99530.77;108418;1251;61210;-70
2024/02/10 03:37:03;;;;;;;;;;;;;;;0.76;100.00;99534.04;108403;1251;74457;-69
2024/02/10 03:39:30;;;;;;;;;;;;;;;0.76;100.00;99525.71;108740;1251;73109;-69
2024/02/10 03:41:58;;;;;;;;;;;;;;;0.77;100.00;99523.12;108370;1251;73324;-69
2024/02/10 03:44:25;;;;;;;;;;;;;;;0.79;100.00;99524.80;108446;1251;61098;-69
2024/02/10 03:46:52;;;;;;;;;;;;;;;0.81;100.00;99527.37;108323;1257;61664;-69
2024/02/10 03:49:19;;;;;;;;;;;;;;;0.80;100.00;99526.36;108308;1251;74581;-70
2024/02/10 03:51:46;;;;;;;;;;;;;;;0.80;100.00;99523.36;108380;1251;72755;-70
2024/02/10 03:54:12;;;;;;;;;;;;;;;0.80;100.00;99519.78;108288;1251;72435;-70
2024/02/10 03:56:47;;;;;;;;;;;;;;;0.78;100.00;99518.93;108308;1251;61079;-72
2024/02/10 03:59:15;;;;;;;;;;;;;;;0.77;100.00;99522.68;108489;1251;61151;-71
2024/02/10 04:01:42;;;;;;;;;;;;;;;0.74;100.00;99525.86;108376;1251;74225;-69
2024/02/10 04:04:09;;;;;;;;;;;;;;;0.72;100.00;99527.27;108570;1251;72519;-69
2024/02/10 04:06:39;;;;;;;;;;;;;;;0.73;100.00;99531.21;108412;1251;71117;-70
2024/02/10 04:09:06;;;;;;;;;;;;;;;0.75;100.00;99528.02;108385;1251;61478;-69
2024/02/10 04:11:33;;;;;;;;;;;;;;;0.77;100.00;99526.47;108358;1251;61131;-69
2024/02/10 04:14:00;;;;;;;;;;;;;;;0.79;100.00;99525.53;108436;1251;74689;-69
2024/02/10 04:16:27;;;;;;;;;;;;;;;0.79;100.00;99520.11;108496;1251;71185;-70
2024/02/10 04:18:54;;;;;;;;;;;;;;;0.76;100.00;99525.80;108350;1251;73291;-69
2024/02/10 04:21:21;;;;;;;;;;;;;;;0.79;100.00;99531.51;108316;1251;61081;-69
2024/02/10 04:23:48;;;;;;;;;;;;;;;0.79;100.00;99529.16;108397;1251;61152;-69
2024/02/10 04:26:16;;;;;;;;;;;;;;;0.80;100.00;99520.46;108382;1255;73379;-69
2024/02/10 04:28:43;;;;;;;;;;;;;;;0.79;100.00;99522.48;108537;1251;72494;-69
2024/02/10 04:31:10;;;;;;;;;;;;;;;0.78;100.00;99517.60;108344;1251;71187;-69
2024/02/10 04:33:37;;;;;;;;;;;;;;;0.76;100.00;99519.16;108412;1251;61208;-69
2024/02/10 04:36:05;;;;;;;;;;;;;;;0.75;100.00;99518.80;108570;1251;61224;-69
2024/02/10 04:38:31;;;;;;;;;;;;;;;0.75;100.00;99522.45;108617;1251;73935;-69
2024/02/10 04:41:04;;;;;;;;;;;;;;;0.75;100.00;99523.66;108432;1251;73038;-69
2024/02/10 04:43:35;;;;;;;;;;;;;;;0.74;100.00;99525.75;108434;1251;71330;-70
2024/02/10 04:46:04;;;;;;;;;;;;;;;0.74;100.00;99524.38;108545;1251;61316;-69
2024/02/10 04:48:30;;;;;;;;;;;;;;;0.75;100.00;99527.41;108444;1251;61227;-69
2024/02/10 04:51:00;;;;;;;;;;;;;;;0.77;100.00;99525.38;108383;1251;73693;-69
2024/02/10 04:53:26;;;;;;;;;;;;;;;0.79;100.00;99529.36;108432;1251;72522;-69
2024/02/10 04:55:53;;;;;;;;;;;;;;;0.78;100.00;99530.34;108395;1251;71244;-70
2024/02/10 04:58:21;;;;;;;;;;;;;;;0.78;100.00;99534.96;108342;1251;61047;-69
2024/02/10 05:00:48;;;;;;;;;;;;;;;0.80;100.00;99534.45;108309;1251;62639;-69
2024/02/10 05:03:15;;;;;;;;;;;;;;;0.81;100.00;99541.15;108431;1251;74798;-69
2024/02/10 05:05:42;;;;;;;;;;;;;;;0.82;100.00;99539.80;108323;1256;72564;-69
2024/02/10 05:08:13;;;;;;;;;;;;;;;0.83;100.00;99541.10;108361;1251;70284;-70
2024/02/10 05:10:40;;;;;;;;;;;;;;;0.82;100.00;99538.35;108362;1251;61211;-70
2024/02/10 05:13:09;;;;;;;;;;;;;;;0.82;100.00;99543.40;108366;1251;61006;-70
2024/02/10 05:15:35;;;;;;;;;;;;;;;0.82;100.00;99542.47;108342;1251;61277;-70
2024/02/10 05:18:05;;;;;;;;;;;;;;;0.79;100.00;99543.77;108353;1251;72681;-71
2024/02/10 05:20:33;;;;;;;;;;;;;;;0.80;100.00;99548.38;108348;1255;72295;-71
2024/02/10 05:23:00;;;;;;;;;;;;;;;0.81;100.00;99546.09;108427;1251;59794;-72
2024/02/10 05:25:31;;;;;;;;;;;;;;;0.81;100.00;99545.48;108362;1256;61093;-71
2024/02/10 05:28:00;;;;;;;;;;;;;;;0.81;100.00;99544.19;108370;1251;74556;-71
2024/02/10 05:30:27;;;;;;;;;;;;;;;0.80;100.00;99542.75;108432;1251;72588;-70
2024/02/10 05:32:54;;;;;;;;;;;;;;;0.78;100.00;99535.23;108347;1251;73123;-69
2024/02/10 05:35:21;;;;;;;;;;;;;;;0.78;100.00;99541.90;108359;1251;61350;-70
2024/02/10 05:37:49;;;;;;;;;;;;;;;0.78;100.00;99545.95;108443;1255;61272;-70
2024/02/10 05:40:17;;;;;;;;;;;;;;;0.80;100.00;99547.64;108382;1256;75054;-69
2024/02/10 05:42:45;;;;;;;;;;;;;;;0.82;100.00;99550.52;108359;1251;72667;-69
2024/02/10 05:45:16;;;;;;;;;;;;;;;0.83;100.00;99557.23;108364;1251;72440;-70
2024/02/10 05:47:44;;;;;;;;;;;;;;;0.84;100.00;99561.99;108404;1255;61231;-70
2024/02/10 05:50:18;;;;;;;;;;;;;;;0.84;100.00;99560.58;108373;1251;59209;-70
2024/02/10 05:52:47;;;;;;;;;;;;;;;0.85;100.00;99561.77;108399;1251;75010;-70
2024/02/10 05:55:20;;;;;;;;;;;;;;;0.84;100.00;99557.18;108341;1251;71843;-70
2024/02/10 05:57:47;;;;;;;;;;;;;;;0.85;100.00;99561.98;108383;1251;71383;-69
2024/02/10 06:00:15;;;;;;;;;;;;;;;0.86;100.00;99561.83;108344;1253;61201;-69
2024/02/10 06:02:42;;;;;;;;;;;;;;;0.87;100.00;99569.92;108372;1251;61152;-69
2024/02/10 06:05:09;;;;;;;;;;;;;;;0.87;100.00;99574.71;108423;1251;72716;-70
2024/02/10 06:07:37;;;;;;;;;;;;;;;0.87;100.00;99576.56;108432;1256;71207;-70
2024/02/10 06:10:14;;;;;;;;;;;;;;;0.87;100.00;99576.23;108698;1251;70722;-70
2024/02/10 06:12:45;;;;;;;;;;;;;;;0.87;100.00;99574.34;108329;1251;61144;-70
2024/02/10 06:15:12;;;;;;;;;;;;;;;0.86;100.00;99576.02;108360;1253;61131;-70
2024/02/10 06:17:39;;;;;;;;;;;;;;;0.87;100.00;99576.83;108343;1251;73289;-71
2024/02/10 06:20:07;;;;;;;;;;;;;;;0.86;100.00;99579.12;108494;1251;71487;-70
2024/02/10 06:22:34;;;;;;;;;;;;;;;0.85;100.00;99583.54;108508;1256;71286;-69
2024/02/10 06:25:04;;;;;;;;;;;;;;;0.86;100.00;99581.84;108338;1256;61077;-69
2024/02/10 06:27:34;;;;;;;;;;;;;;;0.89;100.00;99579.93;108322;1251;61260;-70
2024/02/10 06:30:01;;;;;;;;;;;;;;;0.90;100.00;99571.96;108357;1251;73246;-69
2024/02/10 06:32:34;;;;;;;;;;;;;;;0.90;100.00;99569.98;108332;1251;71744;-69
2024/02/10 06:35:01;;;;;;;;;;;;;;;0.92;100.00;99571.08;108353;1251;72461;-68
2024/02/10 06:37:32;;;;;;;;;;;;;;;0.94;100.00;99579.97;108382;1251;61408;-69
2024/02/10 06:39:58;;;;;;;;;;;;;;;0.95;100.00;99579.07;108342;1251;61130;-68
2024/02/10 06:42:34;;;;;;;;;;;;;;;0.98;100.00;99587.02;108420;1251;73174;-69
2024/02/10 06:45:02;;;;;;;;;;;;;;;0.99;100.00;99589.39;108405;1251;72682;-69
2024/02/10 06:47:28;;;;;;;;;;;;;;;1.01;100.00;99590.48;108255;1251;73416;-70
2024/02/10 06:49:56;;;;;;;;;;;;;;;1.04;100.00;99589.05;108355;1251;61126;-72
2024/02/10 06:52:23;;;;;;;;;;;;;;;1.08;100.00;99586.75;108348;1251;61080;-72
2024/02/10 06:54:53;;;;;;;;;;;;;;;1.10;100.00;99589.55;108462;1251;74415;-69
2024/02/10 06:57:20;;;;;;;;;;;;;;;1.13;100.00;99591.31;108364;1251;72182;-71
2024/02/10 06:59:47;;;;;;;;;;;;;;;1.14;100.00;99593.91;108388;1256;72552;-69
2024/02/10 07:02:14;;;;;;;;;;;;;;;1.14;100.00;99594.35;108336;1251;61128;-71
2024/02/10 07:04:41;;;;;;;;;;;;;;;1.15;100.00;99595.89;108336;1253;61122;-70
2024/02/10 07:07:10;;;;;;;;;;;;;;;1.16;100.00;99597.19;108366;1251;74354;-70
2024/02/10 07:09:37;;;;;;;;;;;;;;;1.17;100.00;99605.54;108382;1256;72740;-71
2024/02/10 07:12:04;;;;;;;;;;;;;;;1.18;100.00;99602.50;108366;1251;73225;-72
2024/02/10 07:14:33;;;;;;;;;;;;;;;1.15;100.00;99600.90;108365;1251;61108;-72
2024/02/10 07:17:01;;;;;;;;;;;;;;;1.14;100.00;99597.51;108408;1251;61132;-71
2024/02/10 07:19:35;;;;;;;;;;;;;;;1.15;100.00;99598.33;108376;1251;74323;-71
2024/02/10 07:22:02;;;;;;;;;;;;;;;1.16;100.00;99597.71;108392;1251;73002;-70
2024/02/10 07:24:29;;;;;;;;;;;;;;;1.16;100.00;99598.78;108408;1251;71561;-70
2024/02/10 07:26:56;;;;;;;;;;;;;;;1.18;100.00;99602.30;108401;1251;61135;-70
2024/02/10 07:29:24;;;;;;;;;;;;;;;1.20;100.00;99601.30;108405;1251;61271;-70
2024/02/10 07:31:51;;;;;;;;;;;;;;;1.24;100.00;99611.88;108398;1251;74493;-70
2024/02/10 07:34:17;;;;;;;;;;;;;;;1.26;100.00;99614.52;108375;1251;71538;-71
2024/02/10 07:36:45;;;;;;;;;;;;;;;1.29;100.00;99616.75;108299;1251;72418;-70
2024/02/10 07:39:14;;;;;;;;;;;;;;;1.30;100.00;99616.26;108304;1251;60141;-69
2024/02/10 07:41:41;;;;;;;;;;;;;;;1.33;100.00;99618.08;108346;1251;61064;-70
2024/02/10 07:44:08;;;;;;;;;;;;;;;1.35;100.00;99614.57;108324;1251;75059;-70
2024/02/10 07:46:34;;;;;;;;;;;;;;;1.36;100.00;99614.04;108446;1251;71261;-69
2024/02/10 07:49:04;;;;;;;;;;;;;;;1.38;100.00;99615.23;108423;1251;72754;-71
2024/02/10 07:51:32;;;;;;;;;;;;;;;1.39;100.00;99613.04;108376;1251;61122;-70
2024/02/10 07:53:59;;;;;;;;;;;;;;;1.41;100.00;99616.54;108386;1251;61048;-69
2024/02/10 07:56:29;;;;;;;;;;;;;;;1.45;100.00;99616.13;108347;1251;73275;-69
2024/02/10 07:59:02;;;;;;;;;;;;;;;1.50;100.00;99611.73;108415;1251;73741;-69
2024/02/10 08:01:29;;;;;;;;;;;;;;;1.53;100.00;99605.75;108386;1251;71177;-70
2024/02/10 08:03:57;;;;;;;;;;;;;;;1.54;100.00;99601.73;108368;1251;61374;-70
2024/02/10 08:06:26;;;;;;;;;;;;;;;1.56;100.00;99599.11;108423;1251;61147;-70
2024/02/10 08:08:56;;;;;;;;;;;;;;;1.54;100.00;99599.27;108317;1254;74787;-70
2024/02/10 08:11:25;;;;;;;;;;;;;;;1.53;100.00;99597.50;108314;1251;71600;-70
2024/02/10 08:13:52;;;;;;;;;;;;;;;1.54;100.00;99598.20;108245;1254;71459;-70
2024/02/10 08:16:19;;;;;;;;;;;;;;;1.53;100.00;99593.72;108360;1251;61082;-71
2024/02/10 08:18:49;;;;;;;;;;;;;;;1.53;100.00;99591.02;108370;1251;61121;-70
2024/02/10 08:21:22;;;;;;;;;;;;;;;1.51;100.00;99593.38;108427;1251;72354;-70
2024/02/10 08:23:52;;;;;;;;;;;;;;;1.51;100.00;99589.53;108354;1251;71471;-70
2024/02/10 08:26:19;;;;;;;;;;;;;;;1.53;100.00;99591.86;108568;1251;72686;-70
2024/02/10 08:28:47;;;;;;;;;;;;;;;1.57;100.00;99594.97;108348;1251;62158;-69
2024/02/10 08:31:15;;;;;;;;;;;;;;;1.61;100.00;99599.09;108376;1251;58987;-69
2024/02/10 08:33:44;;;;;;;;;;;;;;;1.64;100.00;99601.80;108346;1251;74640;-69
2024/02/10 08:36:13;;;;;;;;;;;;;;;1.64;100.00;99609.48;108545;1251;71182;-70
2024/02/10 08:38:40;;;;;;;;;;;;;;;1.66;100.00;99603.90;108331;1251;71460;-70
2024/02/10 08:41:07;;;;;;;;;;;;;;;1.67;100.00;99603.14;108393;1251;61188;-70
2024/02/10 08:43:36;;;;;;;;;;;;;;;1.68;100.00;99608.16;108430;1251;61006;-72
2024/02/10 08:46:03;;;;;;;;;;;;;;;1.66;100.00;99612.48;108363;1251;74310;-70
2024/02/10 08:48:30;;;;;;;;;;;;;;;1.65;100.00;99605.92;108364;1251;72749;-70
2024/02/10 08:50:57;;;;;;;;;;;;;;;1.63;100.00;99606.52;108333;1251;70955;-69
2024/02/10 08:53:24;;;;;;;;;;;;;;;1.61;100.00;99607.88;108350;1251;61126;-72
2024/02/10 08:55:50;;;;;;;;;;;;;;;1.60;100.00;99607.16;108403;1251;61176;-70
2024/02/10 08:58:20;;;;;;;;;;;;;;;1.59;100.00;99604.67;108428;1251;75063;-70
2024/02/10 09:00:47;;;;;;;;;;;;;;;1.60;100.00;99603.27;108435;1251;71374;-69
2024/02/10 09:03:14;;;;;;;;;;;;;;;1.61;100.00;99596.87;108295;1251;72689;-70
2024/02/10 09:05:41;;;;;;;;;;;;;;;1.62;100.00;99595.55;108275;1251;61160;-70
2024/02/10 09:08:07;;;;;;;;;;;;;;;1.66;100.00;99594.89;108359;1251;61342;-69
2024/02/10 09:10:34;;;;;;;;;;;;;;;1.69;100.00;99596.98;108339;1256;74571;-70
2024/02/10 09:13:03;;;;;;;;;;;;;;;1.70;100.00;99595.85;108361;1251;72804;-70
2024/02/10 09:15:33;;;;;;;;;;;;;;;1.71;100.00;99591.52;108389;1251;72508;-70
2024/02/10 09:18:00;;;;;;;;;;;;;;;1.71;100.00;99588.48;108293;1251;61292;-70
2024/02/10 09:20:27;;;;;;;;;;;;;;;1.69;100.00;99587.66;108386;1251;61266;-69
2024/02/10 09:22:55;;;;;;;;;;;;;;;1.69;100.00;99589.67;108365;1251;74698;-69
2024/02/10 09:25:26;;;;;;;;;;;;;;;1.74;100.00;99592.38;108358;1254;71279;-69
2024/02/10 09:27:56;;;;;;;;;;;;;;;1.76;100.00;99590.48;108314;1252;71314;-69
2024/02/10 09:30:25;;;;;;;;;;;;;;;1.78;100.00;99596.86;108375;1251;61109;-70
2024/02/10 09:32:52;;;;;;;;;;;;;;;1.79;100.00;99599.11;108276;1251;61086;-70
2024/02/10 09:35:23;;;;;;;;;;;;;;;1.83;100.00;99595.61;108410;1251;74529;-70
2024/02/10 09:38:00;;;;;;;;;;;;;;;1.86;100.00;99594.13;108319;1251;72762;-70
2024/02/10 09:40:27;;;;;;;;;;;;;;;1.89;100.00;99597.72;108335;1251;72581;-72
2024/02/10 09:42:54;;;;;;;;;;;;;;;1.92;100.00;99595.54;108330;1251;61224;-69
2024/02/10 09:45:23;;;;;;;;;;;;;;;1.95;100.00;99591.36;108353;1251;61231;-70
2024/02/10 09:47:50;;;;;;;;;;;;;;;2.00;100.00;99589.86;108366;1251;72608;-69
2024/02/10 09:50:18;;;;;;;;;;;;;;;2.04;100.00;99587.84;108310;1251;71619;-69
2024/02/10 09:53:00;;;;;;;;;;;;;;;2.06;100.00;99587.67;108175;1251;243741;-69
2024/02/10 09:55:28;;;;;;;;;;;;;;;2.05;100.00;99588.09;108363;1251;61237;-71
2024/02/10 09:57:55;;;;;;;;;;;;;;;2.07;100.00;99591.30;108397;1251;61196;-70
2024/02/10 10:00:21;;;;;;;;;;;;;;;2.09;100.00;99589.49;108349;1251;75097;-69
2024/02/10 10:02:50;;;;;;;;;;;;;;;2.09;100.00;99586.48;108357;1251;72523;-69
2024/02/10 10:05:18;;;;;;;;;;;;;;;2.08;100.00;99586.10;108361;1252;72709;-69
2024/02/10 10:07:46;;;;;;;;;;;;;;;2.06;100.00;99582.84;108372;1251;61208;-70
2024/02/10 10:10:13;;;;;;;;;;;;;;;2.07;100.00;99582.83;108377;1251;61208;-70
2024/02/10 10:12:40;;;;;;;;;;;;;;;2.10;100.00;99578.73;108321;1251;74839;-70
2024/02/10 10:15:08;;;;;;;;;;;;;;;2.12;100.00;99575.23;108383;1251;71125;-70
2024/02/10 10:17:38;;;;;;;;;;;;;;;2.10;100.00;99575.52;108410;1251;72360;-70
2024/02/10 10:20:05;;;;;;;;;;;;;;;2.11;100.00;99576.38;108277;1251;61129;-69
2024/02/10 10:22:38;;;;;;;;;;;;;;;2.07;100.00;99573.39;108344;1251;61188;-68
2024/02/10 10:25:05;;;;;;;;;;;;;;;2.08;100.00;99572.00;108363;1251;73498;-69
2024/02/10 10:27:38;;;;;;;;;;;;;;;2.11;100.00;99571.76;108332;1251;72787;-69
2024/02/10 10:30:07;;;;;;;;;;;;;;;2.12;100.00;99568.29;108380;1251;71197;-70
2024/02/10 10:32:35;;;;;;;;;;;;;;;2.14;100.00;99571.95;108203;1251;61173;-71
2024/02/10 10:35:02;;;;;;;;;;;;;;;2.16;100.00;99569.54;108368;1251;60353;-70
2024/02/10 10:37:30;;;;;;;;;;;;;;;2.14;100.00;99569.48;108349;1251;74587;-70
2024/02/10 10:39:56;;;;;;;;;;;;;;;2.15;100.00;99567.00;108271;1251;71357;-68
2024/02/10 10:42:23;;;;;;;;;;;;;;;2.18;100.00;99569.80;108313;1251;72728;-69
2024/02/10 10:44:50;;;;;;;;;;;;;;;2.19;100.00;99568.09;108333;1251;61189;-69
2024/02/10 10:47:23;;;;;;;;;;;;;;;2.20;100.00;99566.11;108323;1251;61170;-68
2024/02/10 10:49:54;;;;;;;;;;;;;;;2.20;100.00;99562.22;108407;1251;74601;-70
2024/02/10 10:52:21;;;;;;;;;;;;;;;2.19;100.00;99555.70;108372;1251;71354;-68
2024/02/10 10:54:49;;;;;;;;;;;;;;;2.19;100.00;99556.27;108429;1251;71825;-69
2024/02/10 10:57:23;;;;;;;;;;;;;;;2.17;100.00;99555.86;108459;1251;61254;-69
2024/02/10 10:59:55;;;;;;;;;;;;;;;2.17;100.00;99552.05;108526;1251;61056;-69
2024/02/10 11:02:22;;;;;;;;;;;;;;;2.15;100.00;99552.82;108415;1251;74578;-70
2024/02/10 11:05:03;;;;;;;;;;;;;;;2.14;100.00;99551.09;108478;1251;71598;-70
2024/02/10 11:07:33;;;;;;;;;;;;;;;2.16;100.00;99553.09;108447;1251;72452;-70
2024/02/10 11:10:00;;;;;;;;;;;;;;;2.19;100.00;99553.16;108428;1251;61196;-72
2024/02/10 11:12:31;;;;;;;;;;;;;;;2.20;100.00;99552.05;108358;1251;61126;-69
2024/02/10 11:14:58;;;;;;;;;;;;;;;2.21;100.00;99549.80;108447;1251;75142;-68
2024/02/10 11:17:29;;;;;;;;;;;;;;;2.22;100.00;99551.83;108372;1251;71539;-69
2024/02/10 11:20:07;;;;;;;;;;;;;;;2.22;100.00;99553.08;108313;1251;72326;-70
2024/02/10 11:22:34;;;;;;;;;;;;;;;2.18;100.00;99549.69;108361;1251;61492;-70
2024/02/10 11:25:01;;;;;;;;;;;;;;;2.18;100.00;99545.63;108419;1251;61115;-70
2024/02/10 11:27:30;;;;;;;;;;;;;;;2.20;100.00;99547.72;108417;1255;73079;-69
2024/02/10 11:30:00;;;;;;;;;;;;;;;2.23;100.00;99547.80;108348;1251;72609;-70
2024/02/10 11:32:31;;;;;;;;;;;;;;;2.22;100.00;99547.68;108388;1251;72729;-69
2024/02/10 11:34:59;;;;;;;;;;;;;;;2.21;100.00;99547.70;108403;1251;61320;-68
2024/02/10 11:37:29;;;;;;;;;;;;;;;2.19;100.00;99550.12;108353;1255;61094;-69
2024/02/10 11:39:56;;;;;;;;;;;;;;;2.16;100.00;99548.57;108393;1251;72825;-69
2024/02/10 11:42:30;;;;;;;;;;;;;;;2.16;100.00;99551.58;108378;1251;72820;-70
2024/02/10 11:45:00;;;;;;;;;;;;;;;2.17;100.00;99551.80;108547;1251;71445;-70
2024/02/10 11:47:28;;;;;;;;;;;;;;;2.20;100.00;99554.00;108367;1251;60809;-70
2024/02/10 11:49:55;;;;;;;;;;;;;;;2.24;100.00;99551.71;108378;1251;60964;-69
2024/02/10 11:52:26;;;;;;;;;;;;;;;2.27;100.00;99551.73;108325;1253;74562;-69
2024/02/10 11:54:54;;;;;;;;;;;;;;;2.27;100.00;99548.73;108390;1251;71529;-69
2024/02/10 11:57:26;;;;;;;;;;;;;;;2.28;100.00;99549.98;108223;1251;70293;-69
2024/02/10 11:59:53;;;;;;;;;;;;;;;2.30;100.00;99553.95;108318;1251;61252;-69
2024/02/10 12:02:23;;;;;;;;;;;;;;;2.27;100.00;99553.31;108378;1251;61116;-69
2024/02/10 12:04:50;;;;;;;;;;;;;;;2.25;100.00;99555.34;108543;1251;74953;-69
2024/02/10 12:07:18;;;;;;;;;;;;;;;2.25;100.00;99559.27;108384;1251;72466;-69
2024/02/10 12:09:45;;;;;;;;;;;;;;;2.28;100.00;99561.77;108424;1252;72769;-69
2024/02/10 12:12:12;;;;;;;;;;;;;;;2.29;100.00;99559.16;108443;1251;62854;-69
2024/02/10 12:14:39;;;;;;;;;;;;;;;2.30;100.00;99559.04;108428;1251;61383;-69
2024/02/10 12:17:06;;;;;;;;;;;;;;;2.28;100.00;99558.25;108415;1251;73452;-68
2024/02/10 12:19:36;;;;;;;;;;;;;;;2.27;100.00;99558.95;108391;1251;72929;-68
2024/02/10 12:22:05;;;;;;;;;;;;;;;2.23;100.00;99553.02;108351;1251;72552;-67
2024/02/10 12:24:32;;;;;;;;;;;;;;;2.22;100.00;99551.90;108417;1251;61233;-68
2024/02/10 12:26:59;;;;;;;;;;;;;;;2.22;100.00;99552.67;108388;1255;61179;-67
2024/02/10 12:29:28;;;;;;;;;;;;;;;2.20;100.00;99556.95;108336;1251;74457;-68
2024/02/10 12:31:55;;;;;;;;;;;;;;;2.19;100.00;99557.66;108357;1251;71564;-67
2024/02/10 12:34:22;;;;;;;;;;;;;;;2.19;100.00;99559.66;108423;1251;72694;-68
2024/02/10 12:36:49;;;;;;;;;;;;;;;2.19;100.00;99560.39;108383;1251;61076;-67
2024/02/10 12:39:16;;;;;;;;;;;;;;;2.16;100.00;99557.59;108336;1251;60250;-66
2024/02/10 12:41:44;;;;;;;;;;;;;;;2.13;100.00;99557.19;108403;1251;73355;-65